sensor_id;sensor_type;location;lat;lon;timestamp;P1;durP1;ratioP1;P2;durP2;ratioP2
69534;SDS011;56754;51.568;5.048;2022-09-12T00:01:56;6.63;;;4.20;;
69534;SDS011;56754;51.568;5.048;2022-09-12T00:04:22;7.15;;;4.35;;
69534;SDS011;56754;51.568;5.048;2022-09-12T00:06:48;6.10;;;4.07;;
69534;SDS011;56754;51.568;5.048;2022-09-12T00:09:13;7.87;;;4.23;;
69534;SDS011;56754;51.568;5.048;2022-09-12T00:11:40;6.95;;;4.00;;
69534;SDS011;56754;51.568;5.048;2022-09-12T00:14:07;7.03;;;4.32;;
69534;SDS011;56754;51.568;5.048;2022-09-12T00:16:35;7.17;;;4.30;;
69534;SDS011;56754;51.568;5.048;2022-09-12T00:19:01;7.72;;;4.40;;
69534;SDS011;56754;51.568;5.048;2022-09-12T00:21:28;6.88;;;4.40;;
69534;SDS011;56754;51.568;5.048;2022-09-12T00:23:53;7.27;;;4.57;;
69534;SDS011;56754;51.568;5.048;2022-09-12T00:26:19;7.55;;;4.32;;
69534;SDS011;56754;51.568;5.048;2022-09-12T00:28:45;7.30;;;4.72;;
69534;SDS011;56754;51.568;5.048;2022-09-12T00:31:12;7.40;;;4.53;;
69534;SDS011;56754;51.568;5.048;2022-09-12T00:33:45;6.90;;;4.32;;
69534;SDS011;56754;51.568;5.048;2022-09-12T00:36:14;6.57;;;4.20;;
69534;SDS011;56754;51.568;5.048;2022-09-12T00:38:43;6.90;;;4.50;;
69534;SDS011;56754;51.568;5.048;2022-09-12T00:41:12;8.35;;;4.43;;
69534;SDS011;56754;51.568;5.048;2022-09-12T00:43:42;6.32;;;3.92;;
69534;SDS011;56754;51.568;5.048;2022-09-12T00:46:12;6.20;;;4.00;;
69534;SDS011;56754;51.568;5.048;2022-09-12T00:49:14;6.80;;;4.47;;
69534;SDS011;56754;51.568;5.048;2022-09-12T00:51:44;6.82;;;4.57;;
69534;SDS011;56754;51.568;5.048;2022-09-12T00:54:16;6.75;;;4.70;;
69534;SDS011;56754;51.568;5.048;2022-09-12T00:56:46;7.47;;;4.47;;
69534;SDS011;56754;51.568;5.048;2022-09-12T00:59:19;7.38;;;4.70;;
69534;SDS011;56754;51.568;5.048;2022-09-12T01:01:48;7.73;;;4.77;;
69534;SDS011;56754;51.568;5.048;2022-09-12T01:04:16;7.82;;;4.80;;
69534;SDS011;56754;51.568;5.048;2022-09-12T01:06:43;8.95;;;5.00;;
69534;SDS011;56754;51.568;5.048;2022-09-12T01:09:10;8.30;;;5.05;;
69534;SDS011;56754;51.568;5.048;2022-09-12T01:11:39;7.57;;;4.50;;
69534;SDS011;56754;51.568;5.048;2022-09-12T01:14:05;6.60;;;4.13;;
69534;SDS011;56754;51.568;5.048;2022-09-12T01:16:33;7.93;;;5.15;;
69534;SDS011;56754;51.568;5.048;2022-09-12T01:27:24;6.75;;;4.95;;
69534;SDS011;56754;51.568;5.048;2022-09-12T01:41:39;8.07;;;4.80;;
69534;SDS011;56754;51.568;5.048;2022-09-12T01:43:44;7.65;;;5.25;;
69534;SDS011;56754;51.568;5.048;2022-09-12T01:47:25;10.25;;;5.63;;
69534;SDS011;56754;51.568;5.048;2022-09-12T01:49:28;8.63;;;5.22;;
69534;SDS011;56754;51.568;5.048;2022-09-12T01:52:09;7.80;;;5.30;;
69534;SDS011;56754;51.568;5.048;2022-09-12T01:54:43;8.35;;;5.00;;
69534;SDS011;56754;51.568;5.048;2022-09-12T01:57:22;7.70;;;5.38;;
69534;SDS011;56754;51.568;5.048;2022-09-12T01:59:53;8.68;;;5.90;;
69534;SDS011;56754;51.568;5.048;2022-09-12T02:02:43;8.45;;;5.22;;
69534;SDS011;56754;51.568;5.048;2022-09-12T02:05:40;7.80;;;4.93;;
69534;SDS011;56754;51.568;5.048;2022-09-12T02:08:12;7.72;;;5.13;;
69534;SDS011;56754;51.568;5.048;2022-09-12T02:10:46;7.28;;;5.10;;
69534;SDS011;56754;51.568;5.048;2022-09-12T02:15:57;8.18;;;5.50;;
69534;SDS011;56754;51.568;5.048;2022-09-12T02:18:29;8.77;;;5.40;;
69534;SDS011;56754;51.568;5.048;2022-09-12T02:20:57;7.28;;;4.72;;
69534;SDS011;56754;51.568;5.048;2022-09-12T02:23:26;9.98;;;5.57;;
69534;SDS011;56754;51.568;5.048;2022-09-12T02:25:56;8.88;;;5.43;;
69534;SDS011;56754;51.568;5.048;2022-09-12T02:28:30;9.93;;;5.53;;
69534;SDS011;56754;51.568;5.048;2022-09-12T02:36:35;8.30;;;5.53;;
69534;SDS011;56754;51.568;5.048;2022-09-12T02:39:15;8.27;;;5.60;;
69534;SDS011;56754;51.568;5.048;2022-09-12T02:41:41;9.20;;;6.07;;
69534;SDS011;56754;51.568;5.048;2022-09-12T02:44:06;7.60;;;5.10;;
69534;SDS011;56754;51.568;5.048;2022-09-12T02:46:39;7.90;;;5.50;;
69534;SDS011;56754;51.568;5.048;2022-09-12T02:49:08;8.48;;;5.60;;
69534;SDS011;56754;51.568;5.048;2022-09-12T02:51:33;8.90;;;5.83;;
69534;SDS011;56754;51.568;5.048;2022-09-12T02:53:58;9.13;;;5.23;;
69534;SDS011;56754;51.568;5.048;2022-09-12T02:56:27;8.80;;;5.60;;
69534;SDS011;56754;51.568;5.048;2022-09-12T02:58:54;7.35;;;5.22;;
69534;SDS011;56754;51.568;5.048;2022-09-12T03:01:30;8.23;;;5.35;;
69534;SDS011;56754;51.568;5.048;2022-09-12T03:07:27;9.63;;;5.72;;
69534;SDS011;56754;51.568;5.048;2022-09-12T03:21:14;8.18;;;5.10;;
69534;SDS011;56754;51.568;5.048;2022-09-12T03:26:33;9.27;;;5.30;;
69534;SDS011;56754;51.568;5.048;2022-09-12T03:29:00;9.00;;;5.47;;
69534;SDS011;56754;51.568;5.048;2022-09-12T03:31:28;8.38;;;5.40;;
69534;SDS011;56754;51.568;5.048;2022-09-12T03:33:53;8.07;;;5.50;;
69534;SDS011;56754;51.568;5.048;2022-09-12T03:36:19;9.17;;;5.20;;
69534;SDS011;56754;51.568;5.048;2022-09-12T03:38:50;8.25;;;5.55;;
69534;SDS011;56754;51.568;5.048;2022-09-12T03:41:16;8.40;;;5.77;;
69534;SDS011;56754;51.568;5.048;2022-09-12T03:43:42;8.57;;;6.00;;
69534;SDS011;56754;51.568;5.048;2022-09-12T03:46:07;7.87;;;5.73;;
69534;SDS011;56754;51.568;5.048;2022-09-12T03:48:32;8.30;;;5.33;;
69534;SDS011;56754;51.568;5.048;2022-09-12T03:51:01;9.15;;;5.78;;
69534;SDS011;56754;51.568;5.048;2022-09-12T03:53:28;10.07;;;5.87;;
69534;SDS011;56754;51.568;5.048;2022-09-12T03:55:54;9.70;;;5.63;;
69534;SDS011;56754;51.568;5.048;2022-09-12T03:58:20;7.70;;;5.33;;
69534;SDS011;56754;51.568;5.048;2022-09-12T04:00:45;8.13;;;5.40;;
69534;SDS011;56754;51.568;5.048;2022-09-12T04:03:10;11.57;;;6.10;;
69534;SDS011;56754;51.568;5.048;2022-09-12T04:05:35;8.87;;;5.90;;
69534;SDS011;56754;51.568;5.048;2022-09-12T04:08:01;8.13;;;5.47;;
69534;SDS011;56754;51.568;5.048;2022-09-12T04:10:26;9.27;;;5.97;;
69534;SDS011;56754;51.568;5.048;2022-09-12T04:12:52;9.70;;;6.30;;
69534;SDS011;56754;51.568;5.048;2022-09-12T04:15:17;8.50;;;6.10;;
69534;SDS011;56754;51.568;5.048;2022-09-12T04:17:42;8.43;;;5.30;;
69534;SDS011;56754;51.568;5.048;2022-09-12T04:20:08;8.67;;;5.73;;
69534;SDS011;56754;51.568;5.048;2022-09-12T04:22:33;9.03;;;5.83;;
69534;SDS011;56754;51.568;5.048;2022-09-12T04:24:59;8.87;;;6.00;;
69534;SDS011;56754;51.568;5.048;2022-09-12T04:27:24;9.63;;;6.47;;
69534;SDS011;56754;51.568;5.048;2022-09-12T04:29:49;9.93;;;6.50;;
69534;SDS011;56754;51.568;5.048;2022-09-12T04:32:14;8.73;;;5.87;;
69534;SDS011;56754;51.568;5.048;2022-09-12T04:34:40;9.20;;;6.17;;
69534;SDS011;56754;51.568;5.048;2022-09-12T04:37:05;8.70;;;6.17;;
69534;SDS011;56754;51.568;5.048;2022-09-12T04:39:30;10.17;;;6.10;;
69534;SDS011;56754;51.568;5.048;2022-09-12T04:41:55;10.20;;;6.30;;
69534;SDS011;56754;51.568;5.048;2022-09-12T04:44:21;8.87;;;5.90;;
69534;SDS011;56754;51.568;5.048;2022-09-12T04:46:46;8.98;;;5.93;;
69534;SDS011;56754;51.568;5.048;2022-09-12T04:49:12;8.67;;;5.80;;
69534;SDS011;56754;51.568;5.048;2022-09-12T04:51:39;8.95;;;5.70;;
69534;SDS011;56754;51.568;5.048;2022-09-12T04:54:06;9.15;;;6.22;;
69534;SDS011;56754;51.568;5.048;2022-09-12T04:56:38;10.10;;;5.90;;
69534;SDS011;56754;51.568;5.048;2022-09-12T04:59:04;9.73;;;6.05;;
69534;SDS011;56754;51.568;5.048;2022-09-12T05:01:30;8.57;;;5.63;;
69534;SDS011;56754;51.568;5.048;2022-09-12T05:03:56;8.60;;;6.03;;
69534;SDS011;56754;51.568;5.048;2022-09-12T05:06:23;11.40;;;6.05;;
69534;SDS011;56754;51.568;5.048;2022-09-12T05:08:51;9.70;;;5.72;;
69534;SDS011;56754;51.568;5.048;2022-09-12T05:11:20;9.45;;;5.93;;
69534;SDS011;56754;51.568;5.048;2022-09-12T05:13:47;9.07;;;6.00;;
69534;SDS011;56754;51.568;5.048;2022-09-12T05:16:13;8.93;;;6.13;;
69534;SDS011;56754;51.568;5.048;2022-09-12T05:18:40;10.70;;;6.10;;
69534;SDS011;56754;51.568;5.048;2022-09-12T05:21:08;8.68;;;6.03;;
69534;SDS011;56754;51.568;5.048;2022-09-12T05:23:35;8.77;;;5.75;;
69534;SDS011;56754;51.568;5.048;2022-09-12T05:26:02;9.93;;;6.00;;
69534;SDS011;56754;51.568;5.048;2022-09-12T05:28:29;8.33;;;5.97;;
69534;SDS011;56754;51.568;5.048;2022-09-12T05:31:03;8.80;;;5.70;;
69534;SDS011;56754;51.568;5.048;2022-09-12T05:33:30;7.70;;;5.43;;
69534;SDS011;56754;51.568;5.048;2022-09-12T05:35:57;9.45;;;6.13;;
69534;SDS011;56754;51.568;5.048;2022-09-12T05:38:22;8.60;;;5.90;;
69534;SDS011;56754;51.568;5.048;2022-09-12T05:40:48;9.47;;;6.10;;
69534;SDS011;56754;51.568;5.048;2022-09-12T05:43:13;9.60;;;6.03;;
69534;SDS011;56754;51.568;5.048;2022-09-12T05:45:38;8.70;;;5.50;;
69534;SDS011;56754;51.568;5.048;2022-09-12T05:48:03;8.27;;;5.63;;
69534;SDS011;56754;51.568;5.048;2022-09-12T05:50:29;9.40;;;5.63;;
69534;SDS011;56754;51.568;5.048;2022-09-12T05:52:55;8.77;;;5.77;;
69534;SDS011;56754;51.568;5.048;2022-09-12T05:55:21;8.93;;;5.60;;
69534;SDS011;56754;51.568;5.048;2022-09-12T05:57:46;8.80;;;5.43;;
69534;SDS011;56754;51.568;5.048;2022-09-12T06:00:12;8.27;;;5.60;;
69534;SDS011;56754;51.568;5.048;2022-09-12T06:02:38;8.30;;;6.10;;
69534;SDS011;56754;51.568;5.048;2022-09-12T06:05:03;10.73;;;5.70;;
69534;SDS011;56754;51.568;5.048;2022-09-12T06:07:29;9.02;;;5.60;;
69534;SDS011;56754;51.568;5.048;2022-09-12T06:09:54;8.50;;;5.80;;
69534;SDS011;56754;51.568;5.048;2022-09-12T06:12:19;9.43;;;6.17;;
69534;SDS011;56754;51.568;5.048;2022-09-12T06:14:44;10.17;;;6.20;;
69534;SDS011;56754;51.568;5.048;2022-09-12T06:17:10;8.47;;;5.40;;
69534;SDS011;56754;51.568;5.048;2022-09-12T06:19:35;9.73;;;5.47;;
69534;SDS011;56754;51.568;5.048;2022-09-12T06:22:00;9.33;;;5.43;;
69534;SDS011;56754;51.568;5.048;2022-09-12T06:24:25;10.23;;;5.70;;
69534;SDS011;56754;51.568;5.048;2022-09-12T06:26:51;9.00;;;5.87;;
69534;SDS011;56754;51.568;5.048;2022-09-12T06:29:16;9.77;;;5.53;;
69534;SDS011;56754;51.568;5.048;2022-09-12T06:31:41;8.87;;;5.87;;
69534;SDS011;56754;51.568;5.048;2022-09-12T06:34:09;9.52;;;5.40;;
69534;SDS011;56754;51.568;5.048;2022-09-12T06:36:37;9.43;;;6.17;;
69534;SDS011;56754;51.568;5.048;2022-09-12T06:39:09;8.52;;;5.60;;
69534;SDS011;56754;51.568;5.048;2022-09-12T06:41:36;9.68;;;6.18;;
69534;SDS011;56754;51.568;5.048;2022-09-12T06:44:02;10.63;;;6.57;;
69534;SDS011;56754;51.568;5.048;2022-09-12T06:46:27;10.32;;;6.28;;
69534;SDS011;56754;51.568;5.048;2022-09-12T06:48:56;8.07;;;4.97;;
69534;SDS011;56754;51.568;5.048;2022-09-12T06:51:23;7.75;;;5.30;;
69534;SDS011;56754;51.568;5.048;2022-09-12T06:53:48;9.93;;;6.13;;
69534;SDS011;56754;51.568;5.048;2022-09-12T06:56:20;9.87;;;6.70;;
69534;SDS011;56754;51.568;5.048;2022-09-12T06:58:46;12.65;;;7.32;;
69534;SDS011;56754;51.568;5.048;2022-09-12T07:03:38;13.10;;;8.40;;
69534;SDS011;56754;51.568;5.048;2022-09-12T07:06:05;13.57;;;8.80;;
69534;SDS011;56754;51.568;5.048;2022-09-12T07:08:31;12.85;;;8.70;;
69534;SDS011;56754;51.568;5.048;2022-09-12T07:10:58;12.88;;;8.73;;
69534;SDS011;56754;51.568;5.048;2022-09-12T07:13:24;13.85;;;8.32;;
69534;SDS011;56754;51.568;5.048;2022-09-12T07:15:50;14.10;;;8.83;;
69534;SDS011;56754;51.568;5.048;2022-09-12T07:18:15;13.93;;;8.47;;
69534;SDS011;56754;51.568;5.048;2022-09-12T07:20:40;14.00;;;9.27;;
69534;SDS011;56754;51.568;5.048;2022-09-12T07:23:05;13.40;;;8.47;;
69534;SDS011;56754;51.568;5.048;2022-09-12T07:25:31;12.33;;;8.07;;
69534;SDS011;56754;51.568;5.048;2022-09-12T07:27:56;12.77;;;8.17;;
69534;SDS011;56754;51.568;5.048;2022-09-12T07:30:21;12.90;;;7.93;;
69534;SDS011;56754;51.568;5.048;2022-09-12T07:32:46;12.53;;;8.30;;
69534;SDS011;56754;51.568;5.048;2022-09-12T07:35:16;13.43;;;7.83;;
69534;SDS011;56754;51.568;5.048;2022-09-12T07:37:41;11.98;;;7.95;;
69534;SDS011;56754;51.568;5.048;2022-09-12T07:40:06;15.03;;;8.40;;
69534;SDS011;56754;51.568;5.048;2022-09-12T07:42:32;11.37;;;7.80;;
69534;SDS011;56754;51.568;5.048;2022-09-12T07:44:57;11.87;;;7.57;;
69534;SDS011;56754;51.568;5.048;2022-09-12T07:47:22;11.63;;;7.07;;
69534;SDS011;56754;51.568;5.048;2022-09-12T07:49:48;11.50;;;7.83;;
69534;SDS011;56754;51.568;5.048;2022-09-12T07:52:13;11.90;;;7.03;;
69534;SDS011;56754;51.568;5.048;2022-09-12T07:54:38;11.53;;;6.83;;
69534;SDS011;56754;51.568;5.048;2022-09-12T07:57:03;10.57;;;6.70;;
69534;SDS011;56754;51.568;5.048;2022-09-12T07:59:29;12.10;;;6.93;;
69534;SDS011;56754;51.568;5.048;2022-09-12T08:01:54;11.00;;;6.63;;
69534;SDS011;56754;51.568;5.048;2022-09-12T08:04:19;12.73;;;7.53;;
69534;SDS011;56754;51.568;5.048;2022-09-12T08:06:44;11.30;;;7.63;;
69534;SDS011;56754;51.568;5.048;2022-09-12T08:09:10;9.77;;;6.20;;
69534;SDS011;56754;51.568;5.048;2022-09-12T08:11:35;11.03;;;7.10;;
69534;SDS011;56754;51.568;5.048;2022-09-12T08:14:00;10.07;;;6.40;;
69534;SDS011;56754;51.568;5.048;2022-09-12T08:16:27;9.33;;;5.73;;
69534;SDS011;56754;51.568;5.048;2022-09-12T08:18:54;8.95;;;5.75;;
69534;SDS011;56754;51.568;5.048;2022-09-12T08:21:21;9.70;;;5.68;;
69534;SDS011;56754;51.568;5.048;2022-09-12T08:23:55;10.48;;;5.85;;
69534;SDS011;56754;51.568;5.048;2022-09-12T08:26:25;8.52;;;5.55;;
69534;SDS011;56754;51.568;5.048;2022-09-12T08:28:50;9.30;;;6.43;;
69534;SDS011;56754;51.568;5.048;2022-09-12T08:31:17;8.77;;;5.53;;
69534;SDS011;56754;51.568;5.048;2022-09-12T08:33:44;10.13;;;5.37;;
69534;SDS011;56754;51.568;5.048;2022-09-12T08:36:14;8.45;;;5.28;;
69534;SDS011;56754;51.568;5.048;2022-09-12T08:38:42;8.93;;;5.45;;
69534;SDS011;56754;51.568;5.048;2022-09-12T08:49:43;7.25;;;4.45;;
69534;SDS011;56754;51.568;5.048;2022-09-12T08:55:05;7.78;;;4.80;;
69534;SDS011;56754;51.568;5.048;2022-09-12T08:57:40;6.43;;;3.90;;
69534;SDS011;56754;51.568;5.048;2022-09-12T09:00:10;7.93;;;4.03;;
69534;SDS011;56754;51.568;5.048;2022-09-12T09:05:49;6.97;;;4.03;;
69534;SDS011;56754;51.568;5.048;2022-09-12T09:18:50;13.70;;;6.47;;
69534;SDS011;56754;51.568;5.048;2022-09-12T09:21:36;7.80;;;4.57;;
69534;SDS011;56754;51.568;5.048;2022-09-12T09:24:35;7.88;;;4.80;;
69534;SDS011;56754;51.568;5.048;2022-09-12T09:27:12;5.95;;;3.45;;
69534;SDS011;56754;51.568;5.048;2022-09-12T09:29:50;6.93;;;4.17;;
69534;SDS011;56754;51.568;5.048;2022-09-12T09:32:22;7.25;;;3.53;;
69534;SDS011;56754;51.568;5.048;2022-09-12T09:34:50;8.30;;;5.25;;
69534;SDS011;56754;51.568;5.048;2022-09-12T09:37:36;6.77;;;4.00;;
69534;SDS011;56754;51.568;5.048;2022-09-12T09:42:52;7.50;;;4.10;;
69534;SDS011;56754;51.568;5.048;2022-09-12T09:45:20;8.60;;;5.57;;
69534;SDS011;56754;51.568;5.048;2022-09-12T09:47:48;6.00;;;3.50;;
69534;SDS011;56754;51.568;5.048;2022-09-12T09:50:18;5.90;;;3.50;;
69534;SDS011;56754;51.568;5.048;2022-09-12T09:52:44;6.07;;;3.47;;
69534;SDS011;56754;51.568;5.048;2022-09-12T09:55:17;6.80;;;4.55;;
69534;SDS011;56754;51.568;5.048;2022-09-12T09:57:47;6.68;;;3.78;;
69534;SDS011;56754;51.568;5.048;2022-09-12T10:05:46;5.85;;;3.03;;
69534;SDS011;56754;51.568;5.048;2022-09-12T10:10:53;5.30;;;2.80;;
69534;SDS011;56754;51.568;5.048;2022-09-12T10:16:21;5.03;;;2.95;;
69534;SDS011;56754;51.568;5.048;2022-09-12T10:18:48;5.22;;;3.03;;
69534;SDS011;56754;51.568;5.048;2022-09-12T10:23:46;5.32;;;3.17;;
69534;SDS011;56754;51.568;5.048;2022-09-12T10:26:16;6.75;;;3.28;;
69534;SDS011;56754;51.568;5.048;2022-09-12T10:28:51;6.45;;;3.80;;
69534;SDS011;56754;51.568;5.048;2022-09-12T10:31:26;6.55;;;3.10;;
69534;SDS011;56754;51.568;5.048;2022-09-12T10:34:09;6.90;;;2.93;;
69534;SDS011;56754;51.568;5.048;2022-09-12T10:36:48;6.35;;;3.50;;
69534;SDS011;56754;51.568;5.048;2022-09-12T10:39:18;6.30;;;3.47;;
69534;SDS011;56754;51.568;5.048;2022-09-12T10:41:44;5.67;;;2.90;;
69534;SDS011;56754;51.568;5.048;2022-09-12T10:44:14;5.72;;;3.15;;
69534;SDS011;56754;51.568;5.048;2022-09-12T10:46:48;4.80;;;2.75;;
69534;SDS011;56754;51.568;5.048;2022-09-12T10:49:24;6.30;;;2.90;;
69534;SDS011;56754;51.568;5.048;2022-09-12T10:51:52;6.72;;;3.40;;
69534;SDS011;56754;51.568;5.048;2022-09-12T10:54:21;5.75;;;2.97;;
69534;SDS011;56754;51.568;5.048;2022-09-12T10:59:26;6.40;;;3.07;;
69534;SDS011;56754;51.568;5.048;2022-09-12T11:02:13;6.10;;;3.07;;
69534;SDS011;56754;51.568;5.048;2022-09-12T11:05:12;5.55;;;2.80;;
69534;SDS011;56754;51.568;5.048;2022-09-12T11:07:47;5.65;;;2.58;;
69534;SDS011;56754;51.568;5.048;2022-09-12T11:16:03;6.27;;;2.80;;
69534;SDS011;56754;51.568;5.048;2022-09-12T11:24:27;4.97;;;2.85;;
69534;SDS011;56754;51.568;5.048;2022-09-12T11:46:08;4.70;;;2.40;;
69534;SDS011;56754;51.568;5.048;2022-09-12T11:51:14;5.28;;;2.83;;
69534;SDS011;56754;51.568;5.048;2022-09-12T11:53:42;4.88;;;2.40;;
69534;SDS011;56754;51.568;5.048;2022-09-12T11:56:14;5.32;;;2.45;;
69534;SDS011;56754;51.568;5.048;2022-09-12T11:58:42;4.47;;;2.60;;
69534;SDS011;56754;51.568;5.048;2022-09-12T12:01:26;4.68;;;2.60;;
69534;SDS011;56754;51.568;5.048;2022-09-12T12:03:55;4.25;;;2.33;;
69534;SDS011;56754;51.568;5.048;2022-09-12T12:06:37;5.38;;;2.58;;
69534;SDS011;56754;51.568;5.048;2022-09-12T12:09:11;4.55;;;2.40;;
69534;SDS011;56754;51.568;5.048;2022-09-12T12:11:38;4.83;;;2.30;;
69534;SDS011;56754;51.568;5.048;2022-09-12T12:14:12;4.78;;;2.58;;
69534;SDS011;56754;51.568;5.048;2022-09-12T12:16:46;4.10;;;2.30;;
69534;SDS011;56754;51.568;5.048;2022-09-12T12:21:47;4.23;;;2.27;;
69534;SDS011;56754;51.568;5.048;2022-09-12T12:27:00;4.33;;;2.50;;
69534;SDS011;56754;51.568;5.048;2022-09-12T12:37:47;4.22;;;2.53;;
69534;SDS011;56754;51.568;5.048;2022-09-12T12:42:59;4.03;;;2.17;;
69534;SDS011;56754;51.568;5.048;2022-09-12T12:47:42;4.80;;;2.17;;
69534;SDS011;56754;51.568;5.048;2022-09-12T12:50:20;3.88;;;2.10;;
69534;SDS011;56754;51.568;5.048;2022-09-12T12:55:23;4.23;;;2.20;;
69534;SDS011;56754;51.568;5.048;2022-09-12T12:57:51;4.05;;;2.28;;
69534;SDS011;56754;51.568;5.048;2022-09-12T13:02:51;4.47;;;2.30;;
69534;SDS011;56754;51.568;5.048;2022-09-12T13:05:22;3.90;;;2.00;;
69534;SDS011;56754;51.568;5.048;2022-09-12T13:07:57;4.50;;;2.05;;
69534;SDS011;56754;51.568;5.048;2022-09-12T13:10:33;6.20;;;2.40;;
69534;SDS011;56754;51.568;5.048;2022-09-12T13:12:59;4.90;;;2.20;;
69534;SDS011;56754;51.568;5.048;2022-09-12T13:18:16;4.85;;;2.00;;
69534;SDS011;56754;51.568;5.048;2022-09-12T13:23:40;4.07;;;1.92;;
69534;SDS011;56754;51.568;5.048;2022-09-12T13:26:20;4.25;;;2.10;;
69534;SDS011;56754;51.568;5.048;2022-09-12T13:28:47;4.30;;;2.30;;
69534;SDS011;56754;51.568;5.048;2022-09-12T13:33:44;4.73;;;2.20;;
69534;SDS011;56754;51.568;5.048;2022-09-12T13:36:25;4.03;;;2.07;;
69534;SDS011;56754;51.568;5.048;2022-09-12T13:44:19;4.32;;;1.90;;
69534;SDS011;56754;51.568;5.048;2022-09-12T13:46:46;3.95;;;1.90;;
69534;SDS011;56754;51.568;5.048;2022-09-12T13:49:20;3.90;;;2.00;;
69534;SDS011;56754;51.568;5.048;2022-09-12T13:51:53;3.90;;;1.90;;
69534;SDS011;56754;51.568;5.048;2022-09-12T13:54:33;3.40;;;1.90;;
69534;SDS011;56754;51.568;5.048;2022-09-12T13:57:02;3.40;;;1.77;;
69534;SDS011;56754;51.568;5.048;2022-09-12T13:59:36;4.15;;;1.80;;
69534;SDS011;56754;51.568;5.048;2022-09-12T14:02:18;3.37;;;1.80;;
69534;SDS011;56754;51.568;5.048;2022-09-12T14:04:48;3.53;;;1.95;;
69534;SDS011;56754;51.568;5.048;2022-09-12T14:07:18;4.40;;;1.98;;
69534;SDS011;56754;51.568;5.048;2022-09-12T14:09:52;4.25;;;1.95;;
69534;SDS011;56754;51.568;5.048;2022-09-12T14:15:04;4.13;;;1.70;;
69534;SDS011;56754;51.568;5.048;2022-09-12T14:17:33;4.03;;;1.88;;
69534;SDS011;56754;51.568;5.048;2022-09-12T14:20:22;3.70;;;1.85;;
69534;SDS011;56754;51.568;5.048;2022-09-12T14:22:47;3.80;;;1.80;;
69534;SDS011;56754;51.568;5.048;2022-09-12T14:25:14;4.32;;;1.90;;
69534;SDS011;56754;51.568;5.048;2022-09-12T14:27:43;4.00;;;2.17;;
69534;SDS011;56754;51.568;5.048;2022-09-12T14:30:27;3.60;;;1.98;;
69534;SDS011;56754;51.568;5.048;2022-09-12T14:35:34;5.00;;;2.00;;
69534;SDS011;56754;51.568;5.048;2022-09-12T14:38:21;4.15;;;1.98;;
69534;SDS011;56754;51.568;5.048;2022-09-12T14:41:00;4.37;;;2.13;;
69534;SDS011;56754;51.568;5.048;2022-09-12T14:43:33;4.00;;;1.90;;
69534;SDS011;56754;51.568;5.048;2022-09-12T14:46:13;3.70;;;2.05;;
69534;SDS011;56754;51.568;5.048;2022-09-12T14:48:43;3.72;;;1.60;;
69534;SDS011;56754;51.568;5.048;2022-09-12T14:51:18;3.40;;;1.80;;
69534;SDS011;56754;51.568;5.048;2022-09-12T14:53:47;3.53;;;1.80;;
69534;SDS011;56754;51.568;5.048;2022-09-12T14:56:13;4.13;;;1.92;;
69534;SDS011;56754;51.568;5.048;2022-09-12T14:58:38;3.67;;;1.80;;
69534;SDS011;56754;51.568;5.048;2022-09-12T15:05:57;3.70;;;1.90;;
69534;SDS011;56754;51.568;5.048;2022-09-12T15:08:23;3.70;;;1.80;;
69534;SDS011;56754;51.568;5.048;2022-09-12T15:10:49;5.20;;;2.03;;
69534;SDS011;56754;51.568;5.048;2022-09-12T15:13:16;5.55;;;2.10;;
69534;SDS011;56754;51.568;5.048;2022-09-12T15:15:46;4.37;;;2.00;;
69534;SDS011;56754;51.568;5.048;2022-09-12T15:18:15;3.75;;;2.00;;
69534;SDS011;56754;51.568;5.048;2022-09-12T15:20:42;3.80;;;1.70;;
69534;SDS011;56754;51.568;5.048;2022-09-12T15:23:13;3.95;;;2.03;;
69534;SDS011;56754;51.568;5.048;2022-09-12T15:25:54;5.05;;;1.77;;
69534;SDS011;56754;51.568;5.048;2022-09-12T15:28:20;3.63;;;1.63;;
69534;SDS011;56754;51.568;5.048;2022-09-12T15:30:47;3.07;;;1.60;;
69534;SDS011;56754;51.568;5.048;2022-09-12T15:33:15;3.88;;;1.80;;
69534;SDS011;56754;51.568;5.048;2022-09-12T15:35:44;4.00;;;2.00;;
69534;SDS011;56754;51.568;5.048;2022-09-12T15:38:09;5.67;;;1.83;;
69534;SDS011;56754;51.568;5.048;2022-09-12T15:40:34;4.72;;;2.10;;
69534;SDS011;56754;51.568;5.048;2022-09-12T15:43:00;7.60;;;2.10;;
69534;SDS011;56754;51.568;5.048;2022-09-12T15:45:26;4.83;;;2.30;;
69534;SDS011;56754;51.568;5.048;2022-09-12T15:47:53;5.90;;;2.45;;
69534;SDS011;56754;51.568;5.048;2022-09-12T15:50:19;6.33;;;2.77;;
69534;SDS011;56754;51.568;5.048;2022-09-12T15:52:44;6.30;;;2.50;;
69534;SDS011;56754;51.568;5.048;2022-09-12T15:55:17;7.93;;;2.90;;
69534;SDS011;56754;51.568;5.048;2022-09-12T15:57:47;7.57;;;2.90;;
69534;SDS011;56754;51.568;5.048;2022-09-12T16:00:13;6.43;;;2.80;;
69534;SDS011;56754;51.568;5.048;2022-09-12T16:02:40;6.28;;;2.72;;
69534;SDS011;56754;51.568;5.048;2022-09-12T16:05:05;8.37;;;2.57;;
69534;SDS011;56754;51.568;5.048;2022-09-12T16:07:38;8.50;;;3.00;;
69534;SDS011;56754;51.568;5.048;2022-09-12T16:10:03;9.03;;;3.47;;
69534;SDS011;56754;51.568;5.048;2022-09-12T16:12:29;10.80;;;3.45;;
69534;SDS011;56754;51.568;5.048;2022-09-12T16:14:54;27.17;;;7.57;;
69534;SDS011;56754;51.568;5.048;2022-09-12T16:17:19;25.90;;;7.63;;
69534;SDS011;56754;51.568;5.048;2022-09-12T16:19:44;33.53;;;9.83;;
69534;SDS011;56754;51.568;5.048;2022-09-12T16:22:10;33.10;;;8.57;;
69534;SDS011;56754;51.568;5.048;2022-09-12T16:24:35;28.97;;;7.77;;
69534;SDS011;56754;51.568;5.048;2022-09-12T16:27:00;28.77;;;8.80;;
69534;SDS011;56754;51.568;5.048;2022-09-12T16:29:25;32.63;;;9.43;;
69534;SDS011;56754;51.568;5.048;2022-09-12T16:31:51;31.80;;;9.67;;
69534;SDS011;56754;51.568;5.048;2022-09-12T16:34:16;29.13;;;8.57;;
69534;SDS011;56754;51.568;5.048;2022-09-12T16:36:41;26.87;;;8.47;;
69534;SDS011;56754;51.568;5.048;2022-09-12T16:39:06;30.37;;;8.27;;
69534;SDS011;56754;51.568;5.048;2022-09-12T16:41:32;26.30;;;7.57;;
69534;SDS011;56754;51.568;5.048;2022-09-12T16:43:57;30.43;;;8.43;;
69534;SDS011;56754;51.568;5.048;2022-09-12T16:46:25;24.30;;;7.70;;
69534;SDS011;56754;51.568;5.048;2022-09-12T16:48:52;23.90;;;7.68;;
69534;SDS011;56754;51.568;5.048;2022-09-12T16:51:22;25.10;;;7.57;;
69534;SDS011;56754;51.568;5.048;2022-09-12T16:53:52;26.00;;;7.88;;
69534;SDS011;56754;51.568;5.048;2022-09-12T16:56:18;24.02;;;7.22;;
69534;SDS011;56754;51.568;5.048;2022-09-12T16:58:44;21.63;;;8.00;;
69534;SDS011;56754;51.568;5.048;2022-09-12T17:01:14;23.95;;;6.78;;
69534;SDS011;56754;51.568;5.048;2022-09-12T17:03:41;23.20;;;7.90;;
69534;SDS011;56754;51.568;5.048;2022-09-12T17:06:11;24.15;;;7.68;;
69534;SDS011;56754;51.568;5.048;2022-09-12T17:08:38;21.60;;;6.97;;
69534;SDS011;56754;51.568;5.048;2022-09-12T17:11:06;21.45;;;7.13;;
69534;SDS011;56754;51.568;5.048;2022-09-12T17:13:33;21.23;;;5.87;;
69534;SDS011;56754;51.568;5.048;2022-09-12T17:15:58;16.95;;;5.35;;
69534;SDS011;56754;51.568;5.048;2022-09-12T17:18:24;17.50;;;5.43;;
69534;SDS011;56754;51.568;5.048;2022-09-12T17:20:50;17.58;;;5.53;;
69534;SDS011;56754;51.568;5.048;2022-09-12T17:23:15;14.03;;;5.17;;
69534;SDS011;56754;51.568;5.048;2022-09-12T17:25:48;17.38;;;5.90;;
69534;SDS011;56754;51.568;5.048;2022-09-12T17:28:14;17.92;;;5.55;;
69534;SDS011;56754;51.568;5.048;2022-09-12T17:30:40;16.33;;;5.70;;
69534;SDS011;56754;51.568;5.048;2022-09-12T17:33:05;16.27;;;5.27;;
69534;SDS011;56754;51.568;5.048;2022-09-12T17:35:33;16.30;;;5.93;;
69534;SDS011;56754;51.568;5.048;2022-09-12T17:38:00;16.92;;;5.07;;
69534;SDS011;56754;51.568;5.048;2022-09-12T17:40:25;12.93;;;5.17;;
69534;SDS011;56754;51.568;5.048;2022-09-12T17:42:51;13.00;;;4.90;;
69534;SDS011;56754;51.568;5.048;2022-09-12T17:45:16;13.23;;;4.80;;
69534;SDS011;56754;51.568;5.048;2022-09-12T17:47:41;15.03;;;5.17;;
69534;SDS011;56754;51.568;5.048;2022-09-12T17:50:07;12.03;;;4.67;;